createdAt,value
2023-01-08T00:00:56.271Z,98455.75
2023-01-08T00:01:58.688Z,98458.44
2023-01-08T00:03:01.871Z,98455.84
2023-01-08T00:04:04.998Z,98442.97
2023-01-08T00:05:07.879Z,98449.78
2023-01-08T00:06:15.099Z,98450.69
2023-01-08T00:07:16.928Z,98452.53
2023-01-08T00:08:21.336Z,98448.22
2023-01-08T00:09:23.186Z,98445.56
2023-01-08T00:10:26.110Z,98448.03
2023-01-08T00:11:28.477Z,98448.84
2023-01-08T00:12:31.243Z,98441.13
2023-01-08T00:13:33.431Z,98447.78
2023-01-08T00:14:36.224Z,98440.88
2023-01-08T00:15:38.071Z,98446.88
2023-01-08T00:16:41.230Z,98441.56
2023-01-08T00:17:43.393Z,98439.81
2023-01-08T00:18:46.677Z,98437.06
2023-01-08T00:19:48.625Z,98439.56
2023-01-08T00:20:51.677Z,98439.38
2023-01-08T00:21:53.591Z,98435.72
2023-01-08T00:22:56.500Z,98436.47
2023-01-08T00:23:59.965Z,98434.63
2023-01-08T00:25:02.861Z,98439.69
2023-01-08T00:26:06.203Z,98433.56
2023-01-08T00:27:09.309Z,98439.53
2023-01-08T00:28:11.616Z,98435.94
2023-01-08T00:29:14.407Z,98435.06
2023-01-08T00:30:36.785Z,98435.78
2023-01-08T00:31:39.723Z,98439.03
2023-01-08T00:32:41.572Z,98431.94
2023-01-08T00:33:44.758Z,98430.84
2023-01-08T00:34:46.603Z,98430.69
2023-01-08T00:35:49.413Z,98428.75
2023-01-08T00:36:51.368Z,98429.50
2023-01-08T00:37:54.120Z,98425.06
2023-01-08T00:38:55.916Z,98429.25
2023-01-08T00:40:00.159Z,98421.31
2023-01-08T00:41:01.966Z,98416.81
2023-01-08T00:42:05.082Z,98412.31
2023-01-08T00:43:07.091Z,98406.16
2023-01-08T00:44:10.108Z,98406.97
2023-01-08T00:45:12.016Z,98410.38
2023-01-08T00:46:15.107Z,98397.59
2023-01-08T00:47:17.053Z,98401.09
2023-01-08T00:48:20.124Z,98405.41
2023-01-08T00:49:22.939Z,98403.81
2023-01-08T00:50:25.004Z,98409.19
2023-01-08T00:51:27.871Z,98392.94
2023-01-08T00:52:30.174Z,98397.38
2023-01-08T00:53:32.996Z,98402.69
2023-01-08T00:54:34.859Z,98404.53
2023-01-08T00:55:39.115Z,98402.97
2023-01-08T00:56:40.876Z,98404.06
2023-01-08T00:57:44.019Z,98410.22
2023-01-08T00:58:46.741Z,98407.84
2023-01-08T00:59:49.659Z,98405.41
2023-01-08T01:00:51.449Z,98405.59
2023-01-08T01:02:12.898Z,98410.09
2023-01-08T01:03:18.089Z,98413.59
2023-01-08T01:04:21.090Z,98418.00
2023-01-08T01:05:22.941Z,98424.91
2023-01-08T01:06:25.663Z,98424.81
2023-01-08T01:07:27.390Z,98424.81
2023-01-08T01:08:30.685Z,98427.47
2023-01-08T01:09:32.666Z,98420.66
2023-01-08T01:10:35.455Z,98425.00
2023-01-08T01:11:39.614Z,98428.41
2023-01-08T01:12:45.147Z,98418.19
2023-01-08T01:13:48.437Z,98416.59
2023-01-08T01:14:50.387Z,98425.34
2023-01-08T01:15:59.582Z,98422.94
2023-01-08T01:17:01.608Z,98421.34
2023-01-08T01:18:04.616Z,98415.44
2023-01-08T01:19:06.423Z,98415.59
2023-01-08T01:20:11.868Z,98410.63
2023-01-08T01:21:20.013Z,98410.81
2023-01-08T01:22:22.728Z,98407.66
2023-01-08T01:23:24.625Z,98411.47
2023-01-08T01:24:28.167Z,98409.16
2023-01-08T01:27:27.140Z,98401.88
2023-01-08T01:28:29.203Z,98392.88
2023-01-08T01:29:32.005Z,98388.22
2023-01-08T01:30:33.893Z,98391.22
2023-01-08T01:31:37.001Z,98392.34
2023-01-08T01:32:38.901Z,98391.84
2023-01-08T01:33:41.732Z,98390.50
2023-01-08T01:34:44.711Z,98383.94
2023-01-08T01:35:46.493Z,98379.13
2023-01-08T01:36:49.324Z,98383.75
2023-01-08T01:37:51.184Z,98384.06
2023-01-08T01:38:55.461Z,98380.22
2023-01-08T01:39:58.197Z,98384.84
2023-01-08T01:41:01.364Z,98383.41
2023-01-08T01:42:04.437Z,98385.41
2023-01-08T01:43:10.323Z,98383.22
2023-01-08T01:44:36.193Z,98384.50
2023-01-08T01:45:39.091Z,98388.28
2023-01-08T01:46:41.025Z,98382.56
2023-01-08T01:47:46.031Z,98390.53
2023-01-08T01:48:51.134Z,98385.63
2023-01-08T01:49:56.670Z,98379.88
2023-01-08T01:50:58.683Z,98380.13
2023-01-08T01:52:02.735Z,98370.91
2023-01-08T01:53:08.124Z,98372.03
2023-01-08T01:54:12.877Z,98383.34
2023-01-08T01:55:18.322Z,98377.59
2023-01-08T01:56:21.368Z,98373.59
2023-01-08T01:57:24.927Z,98374.63
2023-01-08T01:58:30.661Z,98364.50
2023-01-08T01:59:32.702Z,98372.28
2023-01-08T02:00:36.382Z,98374.09
2023-01-08T02:01:39.423Z,98375.06
2023-01-08T02:02:42.238Z,98370.09
2023-01-08T02:03:44.515Z,98368.56
2023-01-08T02:04:47.391Z,98374.59
2023-01-08T02:05:55.134Z,98369.59
2023-01-08T02:07:02.210Z,98365.59
2023-01-08T02:08:07.833Z,98361.44
2023-01-08T02:09:17.374Z,98369.34
2023-01-08T02:10:24.776Z,98357.41
2023-01-08T02:11:32.871Z,98364.28
2023-01-08T02:12:39.269Z,98354.84
2023-01-08T02:13:48.743Z,98359.22
2023-01-08T02:14:59.997Z,98355.94
2023-01-08T02:16:09.005Z,98344.94
2023-01-08T02:17:14.222Z,98346.81
2023-01-08T02:18:21.634Z,98350.34
2023-01-08T02:19:34.538Z,98346.19
2023-01-08T02:20:39.236Z,98348.84
2023-01-08T02:21:47.418Z,98342.94
2023-01-08T02:23:00.032Z,98355.81
2023-01-08T02:24:08.023Z,98347.31
2023-01-08T02:25:15.379Z,98353.34
2023-01-08T02:26:22.770Z,98358.59
2023-01-08T02:27:26.638Z,98350.97
2023-01-08T02:28:29.182Z,98344.19
2023-01-08T02:29:33.803Z,98351.88
2023-01-08T02:30:36.122Z,98353.63
2023-01-08T02:31:40.962Z,98356.25
2023-01-08T02:32:42.964Z,98351.19
2023-01-08T02:33:46.108Z,98353.91
2023-01-08T02:34:47.928Z,98348.00
2023-01-08T02:35:55.484Z,98352.38
2023-01-08T02:36:57.752Z,98350.75
2023-01-08T02:38:00.511Z,98352.50
2023-01-08T02:39:17.155Z,98360.38
2023-01-08T02:40:24.224Z,98354.63
2023-01-08T02:41:31.587Z,98360.75
2023-01-08T02:42:39.184Z,98350.63
2023-01-08T02:43:44.325Z,98349.88
2023-01-08T02:44:55.105Z,98358.50
2023-01-08T02:46:00.492Z,98350.13
2023-01-08T02:47:03.039Z,98352.81
2023-01-08T02:48:10.723Z,98351.16
2023-01-08T02:49:14.006Z,98352.97
2023-01-08T02:50:22.503Z,98353.81
2023-01-08T02:51:28.615Z,98349.56
2023-01-08T02:52:34.037Z,98354.69
2023-01-08T02:53:40.016Z,98352.25
2023-01-08T02:54:42.539Z,98346.44
2023-01-08T02:55:48.283Z,98350.00
2023-01-08T02:56:53.626Z,98342.47
2023-01-08T02:57:57.130Z,98356.25
2023-01-08T02:58:59.997Z,98348.63
2023-01-08T03:00:03.348Z,98347.81
2023-01-08T03:01:09.948Z,98348.72
2023-01-08T03:02:13.518Z,98350.38
2023-01-08T03:03:18.760Z,98335.06
2023-01-08T03:04:24.837Z,98338.47
2023-01-08T03:05:28.729Z,98346.13
2023-01-08T03:06:30.980Z,98345.31
2023-01-08T03:07:34.069Z,98341.84
2023-01-08T03:08:39.351Z,98346.13
2023-01-08T03:09:42.356Z,98347.03
2023-01-08T03:10:46.297Z,98349.59
2023-01-08T03:11:54.905Z,98342.78
2023-01-08T03:12:59.402Z,98353.88
2023-01-08T03:14:05.582Z,98343.78
2023-01-08T03:15:09.394Z,98341.31
2023-01-08T03:16:13.515Z,98349.16
2023-01-08T03:17:20.303Z,98345.00
2023-01-08T03:18:27.335Z,98335.72
2023-01-08T03:19:32.071Z,98329.88
2023-01-08T03:20:37.211Z,98330.84
2023-01-08T03:21:39.841Z,98330.97
2023-01-08T03:22:44.580Z,98337.88
2023-01-08T03:23:47.675Z,98328.59
2023-01-08T03:24:53.915Z,98332.06
2023-01-08T03:25:56.019Z,98327.06
2023-01-08T03:27:04.061Z,98326.31
2023-01-08T03:28:08.937Z,98323.03
2023-01-08T03:29:14.227Z,98321.44
2023-01-08T03:30:16.655Z,98329.16
2023-01-08T03:31:20.710Z,98325.03
2023-01-08T03:32:24.332Z,98329.25
2023-01-08T03:33:28.458Z,98324.19
2023-01-08T03:34:32.408Z,98330.22
2023-01-08T03:35:37.602Z,98315.72
2023-01-08T03:36:41.503Z,98326.88
2023-01-08T03:37:47.152Z,98320.09
2023-01-08T03:38:52.956Z,98321.91
2023-01-08T03:39:59.181Z,98327.13
2023-01-08T03:41:06.628Z,98322.09
2023-01-08T03:42:13.514Z,98320.47
2023-01-08T03:43:15.289Z,98324.69
2023-01-08T03:44:18.058Z,98317.00
2023-01-08T03:45:21.090Z,98323.81
2023-01-08T03:46:30.570Z,98319.56
2023-01-08T03:47:33.264Z,98318.69
2023-01-08T03:48:36.434Z,98313.63
2023-01-08T03:49:39.404Z,98321.28
2023-01-08T03:50:42.446Z,98310.22
2023-01-08T03:51:45.802Z,98316.13
2023-01-08T03:52:48.580Z,98315.22
2023-01-08T03:53:51.139Z,98311.00
2023-01-08T03:54:54.280Z,98315.34
2023-01-08T03:55:56.912Z,98309.47
2023-01-08T03:56:59.743Z,98317.16
2023-01-08T03:58:04.009Z,98317.16
2023-01-08T03:59:05.746Z,98312.84
2023-01-08T04:00:09.512Z,98310.41
2023-01-08T04:01:11.803Z,98302.88
2023-01-08T04:02:15.267Z,98311.56
2023-01-08T04:03:17.147Z,98307.38
2023-01-08T04:04:20.078Z,98308.28
2023-01-08T04:05:22.884Z,98309.13
2023-01-08T04:06:24.681Z,98317.63
2023-01-08T04:07:27.512Z,98309.09
2023-01-08T04:08:29.309Z,98316.53
2023-01-08T04:09:32.078Z,98308.81
2023-01-08T04:10:53.739Z,98314.78
2023-01-08T04:11:55.579Z,98308.75
2023-01-08T04:12:58.346Z,98298.50
2023-01-08T04:14:01.474Z,98303.56
2023-01-08T04:15:05.153Z,98291.66
2023-01-08T04:16:08.202Z,98296.66
2023-01-08T04:17:12.909Z,98296.53
2023-01-08T04:18:15.167Z,98299.81
2023-01-08T04:19:17.933Z,98302.28
2023-01-08T04:20:19.832Z,98305.69
2023-01-08T04:21:22.831Z,98292.94
2023-01-08T04:22:24.776Z,98290.38
2023-01-08T04:23:27.562Z,98293.84
2023-01-08T04:24:29.517Z,98290.47
2023-01-08T04:25:32.400Z,98293.94
2023-01-08T04:26:34.220Z,98298.22
2023-01-08T04:27:37.080Z,98300.78
2023-01-08T04:28:39.474Z,98301.66
2023-01-08T04:29:43.615Z,98306.84
2023-01-08T04:30:45.515Z,98307.81
2023-01-08T04:31:48.372Z,98308.81
2023-01-08T04:32:50.178Z,98305.47
2023-01-08T04:33:53.220Z,98311.56
2023-01-08T04:34:55.018Z,98306.44
2023-01-08T04:35:58.935Z,98305.63
2023-01-08T04:37:01.931Z,98301.25
2023-01-08T04:38:03.995Z,98305.56
2023-01-08T04:39:06.747Z,98308.94
2023-01-08T04:40:11.192Z,98308.94
2023-01-08T04:41:13.007Z,98308.94
2023-01-08T04:42:15.746Z,98303.97
2023-01-08T04:43:17.651Z,98303.13
2023-01-08T04:44:20.391Z,98302.28
2023-01-08T04:45:23.503Z,98303.97
2023-01-08T04:46:26.294Z,98299.66
2023-01-08T04:47:28.095Z,98302.16
2023-01-08T04:48:32.103Z,98303.81
2023-01-08T04:49:34.277Z,98306.38
2023-01-08T04:50:38.918Z,98306.38
2023-01-08T04:51:40.720Z,98306.53
2023-01-08T04:52:43.925Z,98304.06
2023-01-08T04:53:46.385Z,98311.09
2023-01-08T04:54:49.145Z,98300.16
2023-01-08T04:55:51.026Z,98297.66
2023-01-08T04:56:53.883Z,98297.78
2023-01-08T04:57:55.631Z,98293.63
2023-01-08T04:59:16.998Z,98294.72
2023-01-08T05:00:19.184Z,98286.25
2023-01-08T05:01:26.419Z,98281.09
2023-01-08T05:02:28.563Z,98287.94
2023-01-08T05:03:31.588Z,98279.44
2023-01-08T05:04:34.764Z,98282.84
2023-01-08T05:05:36.663Z,98278.72
2023-01-08T05:06:39.552Z,98270.31
2023-01-08T05:07:41.343Z,98267.06
2023-01-08T05:08:44.096Z,98265.56
2023-01-08T05:09:46.012Z,98249.53
2023-01-08T05:10:48.789Z,98251.19
2023-01-08T05:11:50.703Z,98256.31
2023-01-08T05:12:53.795Z,98260.59
2023-01-08T05:13:56.474Z,98265.56
2023-01-08T05:14:59.322Z,98252.84
2023-01-08T05:16:01.569Z,98260.41
2023-01-08T05:17:05.788Z,98259.50
2023-01-08T05:18:07.587Z,98269.75
2023-01-08T05:19:10.400Z,98267.06
2023-01-08T05:20:12.304Z,98268.59
2023-01-08T05:21:15.176Z,98271.03
2023-01-08T05:22:17.235Z,98273.44
2023-01-08T05:23:20.036Z,98271.69
2023-01-08T05:24:22.826Z,98277.56
2023-01-08T05:25:25.337Z,98281.00
2023-01-08T05:26:28.115Z,98280.13
2023-01-08T05:27:29.858Z,98278.38
2023-01-08T05:28:33.180Z,98274.09
2023-01-08T05:29:34.963Z,98266.44
2023-01-08T05:30:38.124Z,98267.16
2023-01-08T05:31:40.012Z,98272.19
2023-01-08T05:32:44.154Z,98266.13
2023-01-08T05:33:45.899Z,98260.13
2023-01-08T05:34:48.907Z,98272.78
2023-01-08T05:35:50.756Z,98276.09
2023-01-08T05:36:53.622Z,98275.16
2023-01-08T05:37:55.688Z,98266.59
2023-01-08T05:38:58.460Z,98273.38
2023-01-08T05:40:00.245Z,98271.72
2023-01-08T05:41:03.514Z,98262.41
2023-01-08T05:42:05.503Z,98265.16
2023-01-08T05:43:08.229Z,98271.31
2023-01-08T05:44:11.394Z,98269.78
2023-01-08T05:45:13.162Z,98273.28
2023-01-08T05:46:16.061Z,98275.06
2023-01-08T05:47:17.919Z,98279.34
2023-01-08T05:48:21.980Z,98270.78
2023-01-08T05:49:24.074Z,98266.56
2023-01-08T05:50:27.254Z,98265.03
2023-01-08T05:51:29.033Z,98261.72
2023-01-08T05:52:31.779Z,98259.31
2023-01-08T05:53:33.730Z,98261.09
2023-01-08T05:54:36.481Z,98262.00
2023-01-08T05:55:38.254Z,98263.72
2023-01-08T05:56:43.915Z,98252.59
2023-01-08T05:57:45.715Z,98260.22
2023-01-08T05:58:48.495Z,98266.16
2023-01-08T05:59:50.352Z,98257.59
2023-01-08T06:00:53.140Z,98258.44
2023-01-08T06:01:55.023Z,98253.31
2023-01-08T06:02:57.839Z,98251.66
2023-01-08T06:04:01.088Z,98256.69
2023-01-08T06:05:04.028Z,98250.00
2023-01-08T06:06:09.950Z,98258.59
2023-01-08T06:07:12.761Z,98246.78
2023-01-08T06:08:14.760Z,98247.63
2023-01-08T06:09:17.690Z,98245.97
2023-01-08T06:10:19.442Z,98245.97
2023-01-08T06:11:22.187Z,98242.63
2023-01-08T06:12:24.444Z,98242.69
2023-01-08T06:13:27.263Z,98239.31
2023-01-08T06:14:29.052Z,98244.41
2023-01-08T06:15:31.902Z,98252.84
2023-01-08T06:16:33.678Z,98253.63
2023-01-08T06:17:36.755Z,98257.84
2023-01-08T06:18:39.727Z,98254.50
2023-01-08T06:19:42.944Z,98259.69
2023-01-08T06:20:45.713Z,98258.97
2023-01-08T06:22:06.213Z,98251.28
2023-01-08T06:23:09.568Z,98252.97
2023-01-08T06:24:11.632Z,98252.09
2023-01-08T06:25:14.576Z,98254.56
2023-01-08T06:26:16.430Z,98255.34
2023-01-08T06:27:19.195Z,98248.44
2023-01-08T06:28:21.321Z,98250.94
2023-01-08T06:29:25.014Z,98249.22
2023-01-08T06:30:26.853Z,98255.16
2023-01-08T06:31:29.732Z,98253.41
2023-01-08T06:32:31.819Z,98259.41
2023-01-08T06:33:34.673Z,98264.44
2023-01-08T06:34:36.543Z,98257.59
2023-01-08T06:35:40.799Z,98256.78
2023-01-08T06:36:42.587Z,98258.53
2023-01-08T06:37:45.371Z,98266.41
2023-01-08T06:38:47.232Z,98262.31
2023-01-08T06:39:50.986Z,98259.88
2023-01-08T06:40:52.727Z,98260.75
2023-01-08T06:41:55.549Z,98254.00
2023-01-08T06:43:01.303Z,98254.81
2023-01-08T06:44:04.110Z,98259.88
2023-01-08T06:45:07.735Z,98254.75
2023-01-08T06:46:10.901Z,98251.25
2023-01-08T06:47:13.629Z,98256.31
2023-01-08T06:48:15.703Z,98248.53
2023-01-08T06:49:19.974Z,98253.50
2023-01-08T06:50:21.778Z,98249.16
2023-01-08T06:51:25.942Z,98243.91
2023-01-08T06:52:28.885Z,98241.28
2023-01-08T06:53:31.110Z,98241.28
2023-01-08T06:54:34.207Z,98232.66
2023-01-08T06:55:38.178Z,98229.22
2023-01-08T06:56:52.842Z,98234.97
2023-01-08T06:57:57.457Z,98241.75
2023-01-08T06:59:00.292Z,98239.97
2023-01-08T07:00:02.471Z,98243.41
2023-01-08T07:01:06.089Z,98251.06
2023-01-08T07:02:12.130Z,98244.19
2023-01-08T07:03:13.979Z,98254.28
2023-01-08T07:04:16.792Z,98243.94
2023-01-08T07:05:20.040Z,98257.47
2023-01-08T07:06:22.408Z,98253.00
2023-01-08T07:07:26.567Z,98250.41
2023-01-08T07:08:28.346Z,98243.50
2023-01-08T07:09:31.159Z,98243.41
2023-01-08T07:10:34.616Z,98241.66
2023-01-08T07:11:37.346Z,98242.41
2023-01-08T07:12:39.167Z,98237.16
2023-01-08T07:13:42.016Z,98236.16
2023-01-08T07:14:45.015Z,98242.84
2023-01-08T07:15:46.916Z,98242.72
2023-01-08T07:16:49.811Z,98236.56
2023-01-08T07:17:51.596Z,98235.53
2023-01-08T07:18:54.314Z,98238.81
2023-01-08T07:19:56.448Z,98242.09
2023-01-08T07:20:59.224Z,98240.28
2023-01-08T07:22:01.070Z,98240.97
2023-01-08T07:23:06.653Z,98238.22
2023-01-08T07:24:08.814Z,98245.69
2023-01-08T07:25:11.970Z,98242.88
2023-01-08T07:26:14.215Z,98236.69
2023-01-08T07:27:16.963Z,98233.06
2023-01-08T07:28:18.738Z,98225.94
2023-01-08T07:29:21.859Z,98229.13
2023-01-08T07:30:29.689Z,98231.41
2023-01-08T07:31:33.747Z,98226.00
2023-01-08T07:32:35.574Z,98224.06
2023-01-08T07:33:38.337Z,98223.84
2023-01-08T07:34:40.102Z,98227.94
2023-01-08T07:35:43.233Z,98226.94
2023-01-08T07:36:46.271Z,98226.00
2023-01-08T07:37:48.064Z,98230.09
2023-01-08T07:38:52.420Z,98228.25
2023-01-08T07:39:54.213Z,98216.16
2023-01-08T07:40:58.439Z,98219.38
2023-01-08T07:42:00.333Z,98227.75
2023-01-08T07:43:04.588Z,98214.72
2023-01-08T07:44:06.603Z,98212.78
2023-01-08T07:45:10.301Z,98209.84
2023-01-08T07:46:12.153Z,98210.31
2023-01-08T07:47:14.998Z,98217.72
2023-01-08T07:48:17.209Z,98210.50
2023-01-08T07:49:20.013Z,98207.47
2023-01-08T07:50:21.870Z,98206.25
2023-01-08T07:51:24.658Z,98191.31
2023-01-08T07:52:26.513Z,98195.22
2023-01-08T07:53:29.514Z,98189.66
2023-01-08T07:54:32.735Z,98205.41
2023-01-08T07:55:35.473Z,98200.63
2023-01-08T07:56:37.331Z,98207.03
2023-01-08T07:57:40.583Z,98197.13
2023-01-08T07:58:43.664Z,98195.81
2023-01-08T07:59:45.466Z,98190.25
2023-01-08T08:00:48.591Z,98194.94
2023-01-08T08:01:50.444Z,98203.03
2023-01-08T08:02:53.467Z,98196.50
2023-01-08T08:03:56.544Z,98189.31
2023-01-08T08:04:58.303Z,98185.47
2023-01-08T08:06:01.501Z,98183.38
2023-01-08T08:07:03.356Z,98177.94
2023-01-08T08:08:10.178Z,98172.34
2023-01-08T08:09:12.932Z,98178.91
2023-01-08T08:10:16.125Z,98178.50
2023-01-08T08:11:18.837Z,98175.47
2023-01-08T08:12:20.621Z,98181.03
2023-01-08T08:13:23.471Z,98171.22
2023-01-08T08:14:25.230Z,98175.16
2023-01-08T08:15:27.986Z,98170.50
2023-01-08T08:16:30.858Z,98175.31
2023-01-08T08:17:32.945Z,98169.72
2023-01-08T08:18:35.726Z,98159.81
2023-01-08T08:19:37.579Z,98161.09
2023-01-08T08:20:40.323Z,98162.31
2023-01-08T08:21:43.049Z,98155.88
2023-01-08T08:22:44.881Z,98160.66
2023-01-08T08:23:48.007Z,98155.13
2023-01-08T08:24:49.741Z,98164.16
2023-01-08T08:25:53.970Z,98155.94
2023-01-08T08:26:55.733Z,98156.44
2023-01-08T08:27:59.370Z,98159.44
2023-01-08T08:29:02.199Z,98156.50
2023-01-08T08:30:04.911Z,98156.13
2023-01-08T08:31:07.746Z,98158.31
2023-01-08T08:32:09.568Z,98163.19
2023-01-08T08:33:12.290Z,98152.59
2023-01-08T08:34:14.100Z,98154.16
2023-01-08T08:35:17.151Z,98157.28
2023-01-08T08:36:19.941Z,98155.31
2023-01-08T08:37:21.728Z,98156.78
2023-01-08T08:38:24.954Z,98154.22
2023-01-08T08:39:26.791Z,98160.03
2023-01-08T08:40:29.857Z,98154.75
2023-01-08T08:41:34.089Z,98157.16
2023-01-08T08:42:36.962Z,98162.22
2023-01-08T08:43:39.690Z,98156.00
2023-01-08T08:44:43.024Z,98165.31
2023-01-08T08:45:45.972Z,98157.41
2023-01-08T08:46:48.784Z,98152.84
2023-01-08T08:47:50.695Z,98150.09
2023-01-08T08:48:53.391Z,98158.47
2023-01-08T08:49:55.278Z,98150.50
2023-01-08T08:50:58.158Z,98152.09
2023-01-08T08:51:59.890Z,98150.94
2023-01-08T08:53:03.461Z,98146.31
2023-01-08T08:54:05.468Z,98147.06
2023-01-08T08:55:09.071Z,98150.34
2023-01-08T08:56:11.812Z,98145.84
2023-01-08T08:57:15.032Z,98149.94
2023-01-08T08:58:18.197Z,98145.53
2023-01-08T08:59:22.612Z,98151.41
2023-01-08T09:00:25.450Z,98148.72
2023-01-08T09:01:28.287Z,98147.00
2023-01-08T09:02:31.854Z,98151.31
2023-01-08T09:03:35.281Z,98158.16
2023-01-08T09:04:37.188Z,98148.84
2023-01-08T09:05:39.955Z,98153.16
2023-01-08T09:06:41.764Z,98150.59
2023-01-08T09:07:44.554Z,98154.09
2023-01-08T09:08:47.406Z,98148.94
2023-01-08T09:09:50.155Z,98146.34
2023-01-08T09:10:53.164Z,98148.94
2023-01-08T09:11:55.950Z,98140.38
2023-01-08T09:13:00.045Z,98153.16
2023-01-08T09:14:02.876Z,98146.25
2023-01-08T09:15:05.456Z,98146.25
2023-01-08T09:16:09.092Z,98141.09
2023-01-08T09:17:10.894Z,98143.66
2023-01-08T09:18:15.889Z,98144.50
2023-01-08T09:19:19.070Z,98133.44
2023-01-08T09:20:20.891Z,98140.25
2023-01-08T09:21:23.715Z,98135.09
2023-01-08T09:22:25.718Z,98126.41
2023-01-08T09:23:28.469Z,98123.84
2023-01-08T09:24:32.298Z,98118.59
2023-01-08T09:25:34.212Z,98115.09
2023-01-08T09:26:36.961Z,98112.38
2023-01-08T09:27:39.664Z,98112.09
2023-01-08T09:28:43.794Z,98110.13
2023-01-08T09:29:46.543Z,98103.75
2023-01-08T09:30:48.287Z,98101.69
2023-01-08T09:31:51.913Z,98096.28
2023-01-08T09:32:58.218Z,98102.91
2023-01-08T09:34:00.621Z,98093.22
2023-01-08T09:35:03.591Z,98098.06
2023-01-08T09:36:10.535Z,98093.09
2023-01-08T09:37:12.459Z,98097.53
2023-01-08T09:38:15.647Z,98094.41
2023-01-08T09:39:17.375Z,98096.25
2023-01-08T09:40:20.711Z,98094.81
2023-01-08T09:41:26.224Z,98092.63
2023-01-08T09:42:29.127Z,98087.75
2023-01-08T09:43:33.307Z,98082.13
2023-01-08T09:44:39.522Z,98087.50
2023-01-08T09:45:43.256Z,98078.47
2023-01-08T09:46:46.406Z,98079.66
2023-01-08T09:47:49.640Z,98072.41
2023-01-08T09:48:52.532Z,98076.22
2023-01-08T09:49:58.405Z,98076.72
2023-01-08T09:51:01.262Z,98073.88
2023-01-08T09:52:03.855Z,98071.31
2023-01-08T09:53:07.071Z,98066.25
2023-01-08T09:54:15.804Z,98064.69
2023-01-08T09:55:19.110Z,98060.69
2023-01-08T09:56:20.951Z,98054.91
2023-01-08T09:57:23.895Z,98052.53
2023-01-08T09:58:33.082Z,98050.19
2023-01-08T09:59:35.833Z,98042.63
2023-01-08T10:00:40.076Z,98047.91
2023-01-08T10:01:44.631Z,98045.41
2023-01-08T10:02:46.598Z,98042.00
2023-01-08T10:03:52.084Z,98040.97
2023-01-08T10:04:57.595Z,98036.41
2023-01-08T10:05:59.429Z,98025.84
2023-01-08T10:07:07.264Z,98031.38
2023-01-08T10:08:12.033Z,98027.63
2023-01-08T10:09:15.992Z,98029.78
2023-01-08T10:10:21.518Z,98028.53
2023-01-08T10:11:23.817Z,98028.91
2023-01-08T10:12:28.956Z,98034.22
2023-01-08T10:13:31.327Z,98028.59
2023-01-08T10:14:37.924Z,98027.16
2023-01-08T10:15:42.360Z,98021.53
2023-01-08T10:16:56.078Z,98023.56
2023-01-08T10:18:03.379Z,98020.38
2023-01-08T10:19:06.352Z,98018.16
2023-01-08T10:20:13.551Z,98029.72
2023-01-08T10:21:15.559Z,98021.38
2023-01-08T10:22:21.156Z,98024.47
2023-01-08T10:23:24.038Z,98022.31
2023-01-08T10:24:34.133Z,98022.78
2023-01-08T10:25:49.111Z,98020.66
2023-01-08T10:26:54.368Z,98020.31
2023-01-08T10:27:59.914Z,98013.94
2023-01-08T10:29:16.181Z,98010.31
2023-01-08T10:30:21.127Z,98008.28
2023-01-08T10:31:25.350Z,98004.63
2023-01-08T10:32:31.570Z,97999.19
2023-01-08T10:33:42.951Z,98002.25
2023-01-08T10:34:50.286Z,98002.03
2023-01-08T10:35:56.113Z,97992.47
2023-01-08T10:36:59.004Z,97996.59
2023-01-08T10:38:01.678Z,97993.75
2023-01-08T10:39:05.368Z,97995.16
2023-01-08T10:40:22.039Z,97988.78
2023-01-08T10:41:24.022Z,97983.34
2023-01-08T10:42:27.514Z,97981.47
2023-01-08T10:43:31.494Z,97976.97
2023-01-08T10:44:35.856Z,97980.97
2023-01-08T10:45:41.957Z,97978.25
2023-01-08T10:46:48.192Z,97978.97
2023-01-08T10:47:53.049Z,97980.47
2023-01-08T10:48:57.958Z,97971.75
2023-01-08T10:50:01.514Z,97963.97
2023-01-08T10:51:24.689Z,97969.88
2023-01-08T10:52:31.703Z,97971.50
2023-01-08T10:53:34.663Z,97967.97
2023-01-08T10:54:38.918Z,97964.31
2023-01-08T10:55:41.682Z,97966.78
2023-01-08T10:56:44.736Z,97963.09
2023-01-08T10:57:54.961Z,97970.78
2023-01-08T10:59:00.840Z,97973.09
2023-01-08T11:00:04.591Z,97974.50
2023-01-08T11:01:10.760Z,97972.50
2023-01-08T11:02:22.730Z,97971.53
2023-01-08T11:03:29.881Z,97974.00
2023-01-08T11:04:34.862Z,97971.31
2023-01-08T11:05:39.099Z,97972.13
2023-01-08T11:06:44.294Z,97970.44
2023-01-08T11:07:51.443Z,97968.72
2023-01-08T11:08:55.925Z,97971.53
2023-01-08T11:09:59.051Z,97969.75
2023-01-08T11:11:02.581Z,97966.34
2023-01-08T11:12:05.845Z,97962.94
2023-01-08T11:13:09.026Z,97962.94
2023-01-08T11:14:17.337Z,97966.22
2023-01-08T11:15:41.648Z,97967.84
2023-01-08T11:16:43.719Z,97966.22
2023-01-08T11:17:47.836Z,97967.75
2023-01-08T11:18:51.785Z,97958.19
2023-01-08T11:19:55.961Z,97962.44
2023-01-08T11:21:08.920Z,97956.28
2023-01-08T11:22:19.932Z,97955.31
2023-01-08T11:23:25.092Z,97954.25
2023-01-08T11:24:28.744Z,97952.50
2023-01-08T11:25:32.282Z,97962.88
2023-01-08T11:26:35.567Z,97952.34
2023-01-08T11:27:41.089Z,97960.03
2023-01-08T11:28:49.723Z,97954.84
2023-01-08T11:29:58.140Z,97947.88
2023-01-08T11:31:06.327Z,97947.75
2023-01-08T11:32:31.628Z,97946.66
2023-01-08T11:33:37.469Z,97944.78
2023-01-08T11:34:46.231Z,97945.44
2023-01-08T11:35:51.716Z,97937.66
2023-01-08T11:36:58.826Z,97946.41
2023-01-08T11:38:01.937Z,97937.94
2023-01-08T11:39:04.815Z,97943.94
2023-01-08T11:40:14.075Z,97941.34
2023-01-08T11:41:25.889Z,97943.00
2023-01-08T11:42:39.088Z,97938.75
2023-01-08T11:43:56.161Z,97935.34
2023-01-08T11:45:07.449Z,97939.72
2023-01-08T11:46:29.555Z,97935.34
2023-01-08T11:47:44.884Z,97935.44
2023-01-08T11:49:03.629Z,97932.16
2023-01-08T11:50:14.096Z,97933.13
2023-01-08T11:51:31.011Z,97927.09
2023-01-08T11:52:44.458Z,97939.28
2023-01-08T11:53:50.363Z,97921.19
2023-01-08T11:55:08.448Z,97932.41
2023-01-08T11:56:21.477Z,97929.00
2023-01-08T11:57:35.018Z,97933.38
2023-01-08T11:58:53.523Z,97928.16
2023-01-08T12:00:10.687Z,97924.88
2023-01-08T12:01:29.418Z,97929.13
2023-01-08T12:02:47.596Z,97929.13
2023-01-08T12:04:01.644Z,97925.56
2023-01-08T12:05:29.205Z,97928.75
2023-01-08T12:06:38.170Z,97923.41
2023-01-08T12:07:47.126Z,97922.09
2023-01-08T12:08:55.410Z,97915.56
2023-01-08T12:10:02.286Z,97912.34
2023-01-08T12:11:12.376Z,97916.88
2023-01-08T12:12:22.596Z,97915.41
2023-01-08T12:13:46.816Z,97918.31
2023-01-08T12:14:57.438Z,97908.34
2023-01-08T12:16:08.976Z,97914.66
2023-01-08T12:17:37.433Z,97911.66
2023-01-08T12:18:52.021Z,97918.00
2023-01-08T12:20:03.839Z,97919.78
2023-01-08T12:21:12.352Z,97913.00
2023-01-08T12:22:28.249Z,97908.50
2023-01-08T12:23:42.988Z,97901.44
2023-01-08T12:24:55.277Z,97901.41
2023-01-08T12:26:19.346Z,97898.75
2023-01-08T12:27:40.855Z,97899.56
2023-01-08T12:29:03.912Z,97898.47
2023-01-08T12:30:16.261Z,97897.09
2023-01-08T12:31:30.436Z,97890.38
2023-01-08T12:32:36.369Z,97891.88
2023-01-08T12:33:41.022Z,97885.56
2023-01-08T12:34:51.148Z,97883.13
2023-01-08T12:35:56.054Z,97876.84
2023-01-08T12:37:04.243Z,97878.47
2023-01-08T12:38:11.495Z,97880.97
2023-01-08T12:39:18.071Z,97890.25
2023-01-08T12:40:41.960Z,97883.38
2023-01-08T12:41:44.307Z,97880.34